sensor_id;sensor_type;location;lat;lon;timestamp;temperature;humidity
15819;DHT22;8010;53.986;12.106;2023-09-19T00:00:59;19.00;99.90
15819;DHT22;8010;53.986;12.106;2023-09-19T00:03:25;19.00;99.90
15819;DHT22;8010;53.986;12.106;2023-09-19T00:05:51;19.00;99.90
15819;DHT22;8010;53.986;12.106;2023-09-19T00:08:16;19.10;99.90
15819;DHT22;8010;53.986;12.106;2023-09-19T00:10:42;19.20;99.90
15819;DHT22;8010;53.986;12.106;2023-09-19T00:13:08;19.20;99.90
15819;DHT22;8010;53.986;12.106;2023-09-19T00:15:40;19.30;99.90
15819;DHT22;8010;53.986;12.106;2023-09-19T00:18:06;19.30;99.90
15819;DHT22;8010;53.986;12.106;2023-09-19T00:20:32;19.20;99.90
15819;DHT22;8010;53.986;12.106;2023-09-19T00:23:00;19.20;99.90
15819;DHT22;8010;53.986;12.106;2023-09-19T00:25:31;19.20;99.90
15819;DHT22;8010;53.986;12.106;2023-09-19T00:27:57;19.20;99.90
15819;DHT22;8010;53.986;12.106;2023-09-19T00:30:23;19.20;99.90
15819;DHT22;8010;53.986;12.106;2023-09-19T00:32:50;19.20;99.90
15819;DHT22;8010;53.986;12.106;2023-09-19T00:35:20;19.20;99.90
15819;DHT22;8010;53.986;12.106;2023-09-19T00:37:46;19.20;99.90
15819;DHT22;8010;53.986;12.106;2023-09-19T00:40:11;19.20;99.90
15819;DHT22;8010;53.986;12.106;2023-09-19T00:42:40;19.30;99.90
15819;DHT22;8010;53.986;12.106;2023-09-19T00:45:10;19.20;99.90
15819;DHT22;8010;53.986;12.106;2023-09-19T00:47:44;19.10;99.90
15819;DHT22;8010;53.986;12.106;2023-09-19T00:50:11;19.10;99.90
15819;DHT22;8010;53.986;12.106;2023-09-19T00:52:40;19.10;99.90
15819;DHT22;8010;53.986;12.106;2023-09-19T00:55:08;19.10;99.90
15819;DHT22;8010;53.986;12.106;2023-09-19T00:57:35;19.00;99.90
15819;DHT22;8010;53.986;12.106;2023-09-19T01:00:02;19.00;99.90
15819;DHT22;8010;53.986;12.106;2023-09-19T01:02:32;18.90;99.90
15819;DHT22;8010;53.986;12.106;2023-09-19T01:04:59;18.80;99.90
15819;DHT22;8010;53.986;12.106;2023-09-19T01:07:26;18.80;99.90
15819;DHT22;8010;53.986;12.106;2023-09-19T01:09:52;18.70;99.90
15819;DHT22;8010;53.986;12.106;2023-09-19T01:12:32;18.60;99.90
15819;DHT22;8010;53.986;12.106;2023-09-19T01:15:14;18.50;99.90
15819;DHT22;8010;53.986;12.106;2023-09-19T01:18:02;18.40;99.90
15819;DHT22;8010;53.986;12.106;2023-09-19T01:20:53;18.40;99.90
15819;DHT22;8010;53.986;12.106;2023-09-19T01:23:46;18.30;99.90
15819;DHT22;8010;53.986;12.106;2023-09-19T01:26:30;18.30;99.90
15819;DHT22;8010;53.986;12.106;2023-09-19T01:29:08;18.20;99.90
15819;DHT22;8010;53.986;12.106;2023-09-19T01:31:40;18.20;99.90
15819;DHT22;8010;53.986;12.106;2023-09-19T01:34:07;18.10;99.90
15819;DHT22;8010;53.986;12.106;2023-09-19T01:36:37;18.10;99.90
15819;DHT22;8010;53.986;12.106;2023-09-19T01:39:08;18.10;99.90
15819;DHT22;8010;53.986;12.106;2023-09-19T01:41:48;18.10;99.90
15819;DHT22;8010;53.986;12.106;2023-09-19T01:44:31;18.00;99.90
15819;DHT22;8010;53.986;12.106;2023-09-19T01:47:06;18.00;99.90
15819;DHT22;8010;53.986;12.106;2023-09-19T01:50:02;18.00;99.90
15819;DHT22;8010;53.986;12.106;2023-09-19T01:52:36;17.90;99.90
15819;DHT22;8010;53.986;12.106;2023-09-19T01:55:08;17.90;99.90
15819;DHT22;8010;53.986;12.106;2023-09-19T01:57:42;17.80;99.90
15819;DHT22;8010;53.986;12.106;2023-09-19T02:00:12;17.80;99.90
15819;DHT22;8010;53.986;12.106;2023-09-19T02:02:39;17.80;99.90
15819;DHT22;8010;53.986;12.106;2023-09-19T02:05:06;17.70;99.90
15819;DHT22;8010;53.986;12.106;2023-09-19T02:07:32;17.70;99.90
15819;DHT22;8010;53.986;12.106;2023-09-19T02:09:58;17.70;99.90
15819;DHT22;8010;53.986;12.106;2023-09-19T02:12:27;17.70;99.90
15819;DHT22;8010;53.986;12.106;2023-09-19T02:14:53;17.60;99.90
15819;DHT22;8010;53.986;12.106;2023-09-19T02:17:18;17.60;99.90
15819;DHT22;8010;53.986;12.106;2023-09-19T02:19:44;17.60;99.90
15819;DHT22;8010;53.986;12.106;2023-09-19T02:22:10;17.70;99.90
15819;DHT22;8010;53.986;12.106;2023-09-19T02:24:36;17.70;99.90
15819;DHT22;8010;53.986;12.106;2023-09-19T02:27:03;17.70;99.90
15819;DHT22;8010;53.986;12.106;2023-09-19T02:29:30;17.70;99.90
15819;DHT22;8010;53.986;12.106;2023-09-19T02:31:55;17.70;99.90
15819;DHT22;8010;53.986;12.106;2023-09-19T02:34:21;17.60;99.90
15819;DHT22;8010;53.986;12.106;2023-09-19T02:36:47;17.60;99.90
15819;DHT22;8010;53.986;12.106;2023-09-19T02:39:12;17.60;99.90
15819;DHT22;8010;53.986;12.106;2023-09-19T02:41:38;17.50;99.90
15819;DHT22;8010;53.986;12.106;2023-09-19T02:44:04;17.50;99.90
15819;DHT22;8010;53.986;12.106;2023-09-19T02:46:33;17.80;99.90
15819;DHT22;8010;53.986;12.106;2023-09-19T02:48:59;17.50;99.90
15819;DHT22;8010;53.986;12.106;2023-09-19T02:51:24;17.50;99.90
15819;DHT22;8010;53.986;12.106;2023-09-19T02:53:50;17.40;99.90
15819;DHT22;8010;53.986;12.106;2023-09-19T02:56:18;17.40;99.90
15819;DHT22;8010;53.986;12.106;2023-09-19T02:58:43;17.40;99.90
15819;DHT22;8010;53.986;12.106;2023-09-19T03:01:12;17.30;99.90
15819;DHT22;8010;53.986;12.106;2023-09-19T03:03:38;17.30;99.90
15819;DHT22;8010;53.986;12.106;2023-09-19T03:06:06;17.30;99.90
15819;DHT22;8010;53.986;12.106;2023-09-19T03:08:34;17.20;99.90
15819;DHT22;8010;53.986;12.106;2023-09-19T03:11:03;17.20;99.90
15819;DHT22;8010;53.986;12.106;2023-09-19T03:13:29;17.10;99.90
15819;DHT22;8010;53.986;12.106;2023-09-19T03:15:56;17.10;99.90
15819;DHT22;8010;53.986;12.106;2023-09-19T03:18:24;17.10;99.90
15819;DHT22;8010;53.986;12.106;2023-09-19T03:20:58;17.10;99.90
15819;DHT22;8010;53.986;12.106;2023-09-19T03:23:27;17.00;99.90
15819;DHT22;8010;53.986;12.106;2023-09-19T03:25:56;17.10;99.90
15819;DHT22;8010;53.986;12.106;2023-09-19T03:28:22;17.00;99.90
15819;DHT22;8010;53.986;12.106;2023-09-19T03:31:00;17.00;99.90
15819;DHT22;8010;53.986;12.106;2023-09-19T03:33:26;17.00;99.90
15819;DHT22;8010;53.986;12.106;2023-09-19T03:35:52;17.00;99.90
15819;DHT22;8010;53.986;12.106;2023-09-19T03:38:19;17.00;99.90
15819;DHT22;8010;53.986;12.106;2023-09-19T03:40:44;17.00;99.90
15819;DHT22;8010;53.986;12.106;2023-09-19T03:43:10;17.00;99.90
15819;DHT22;8010;53.986;12.106;2023-09-19T03:45:35;17.00;99.90
15819;DHT22;8010;53.986;12.106;2023-09-19T03:48:10;17.00;99.90
15819;DHT22;8010;53.986;12.106;2023-09-19T03:50:36;16.90;99.90
15819;DHT22;8010;53.986;12.106;2023-09-19T03:53:03;16.90;99.90
15819;DHT22;8010;53.986;12.106;2023-09-19T03:55:29;16.90;99.90
15819;DHT22;8010;53.986;12.106;2023-09-19T03:57:57;16.90;99.90
15819;DHT22;8010;53.986;12.106;2023-09-19T04:00:23;16.90;99.90
15819;DHT22;8010;53.986;12.106;2023-09-19T04:02:52;16.90;99.90
15819;DHT22;8010;53.986;12.106;2023-09-19T04:05:18;16.90;99.90
15819;DHT22;8010;53.986;12.106;2023-09-19T04:07:44;16.90;99.90
15819;DHT22;8010;53.986;12.106;2023-09-19T04:10:10;16.90;99.90
15819;DHT22;8010;53.986;12.106;2023-09-19T04:12:40;16.90;99.90
15819;DHT22;8010;53.986;12.106;2023-09-19T04:15:06;16.90;99.90
15819;DHT22;8010;53.986;12.106;2023-09-19T04:17:32;16.90;99.90
15819;DHT22;8010;53.986;12.106;2023-09-19T04:19:59;16.80;99.90
15819;DHT22;8010;53.986;12.106;2023-09-19T04:22:24;16.80;99.90
15819;DHT22;8010;53.986;12.106;2023-09-19T04:24:50;16.70;99.90
15819;DHT22;8010;53.986;12.106;2023-09-19T04:27:15;16.70;99.90
15819;DHT22;8010;53.986;12.106;2023-09-19T04:29:41;16.70;99.90
15819;DHT22;8010;53.986;12.106;2023-09-19T04:32:07;16.60;99.90
15819;DHT22;8010;53.986;12.106;2023-09-19T04:34:33;16.60;99.90
15819;DHT22;8010;53.986;12.106;2023-09-19T04:36:59;16.60;99.90
15819;DHT22;8010;53.986;12.106;2023-09-19T04:39:26;16.50;99.90
15819;DHT22;8010;53.986;12.106;2023-09-19T04:41:52;16.50;99.90
15819;DHT22;8010;53.986;12.106;2023-09-19T04:44:18;16.40;99.90
15819;DHT22;8010;53.986;12.106;2023-09-19T04:46:44;16.40;99.90
15819;DHT22;8010;53.986;12.106;2023-09-19T04:49:10;16.40;99.90
15819;DHT22;8010;53.986;12.106;2023-09-19T04:51:36;16.40;99.90
15819;DHT22;8010;53.986;12.106;2023-09-19T04:54:02;16.30;99.90
15819;DHT22;8010;53.986;12.106;2023-09-19T04:56:28;16.30;99.90
15819;DHT22;8010;53.986;12.106;2023-09-19T04:58:58;16.30;99.90
15819;DHT22;8010;53.986;12.106;2023-09-19T05:01:24;16.30;99.90
15819;DHT22;8010;53.986;12.106;2023-09-19T05:03:50;16.20;99.90
15819;DHT22;8010;53.986;12.106;2023-09-19T05:06:19;16.20;99.90
15819;DHT22;8010;53.986;12.106;2023-09-19T05:08:46;16.20;99.90
15819;DHT22;8010;53.986;12.106;2023-09-19T05:11:15;16.20;99.90
15819;DHT22;8010;53.986;12.106;2023-09-19T05:13:41;16.20;99.90
15819;DHT22;8010;53.986;12.106;2023-09-19T05:16:06;17.70;99.90
15819;DHT22;8010;53.986;12.106;2023-09-19T05:18:35;16.20;99.90
15819;DHT22;8010;53.986;12.106;2023-09-19T05:21:02;16.20;99.90
15819;DHT22;8010;53.986;12.106;2023-09-19T05:23:28;16.20;99.90
15819;DHT22;8010;53.986;12.106;2023-09-19T05:25:54;16.20;99.90
15819;DHT22;8010;53.986;12.106;2023-09-19T05:28:20;16.20;99.90
15819;DHT22;8010;53.986;12.106;2023-09-19T05:30:45;16.20;99.90
15819;DHT22;8010;53.986;12.106;2023-09-19T05:33:12;16.20;99.90
15819;DHT22;8010;53.986;12.106;2023-09-19T05:35:38;16.20;99.90
15819;DHT22;8010;53.986;12.106;2023-09-19T05:38:05;16.20;99.90
15819;DHT22;8010;53.986;12.106;2023-09-19T05:40:34;16.20;99.90
15819;DHT22;8010;53.986;12.106;2023-09-19T05:43:00;16.20;99.90
15819;DHT22;8010;53.986;12.106;2023-09-19T05:45:26;16.20;99.90
15819;DHT22;8010;53.986;12.106;2023-09-19T05:47:53;16.20;99.90
15819;DHT22;8010;53.986;12.106;2023-09-19T05:50:26;16.20;99.90
15819;DHT22;8010;53.986;12.106;2023-09-19T05:52:52;16.30;99.90
15819;DHT22;8010;53.986;12.106;2023-09-19T05:55:19;16.30;99.90
15819;DHT22;8010;53.986;12.106;2023-09-19T05:57:50;16.30;99.90
15819;DHT22;8010;53.986;12.106;2023-09-19T06:00:17;16.30;99.90
15819;DHT22;8010;53.986;12.106;2023-09-19T06:02:44;16.30;99.90
15819;DHT22;8010;53.986;12.106;2023-09-19T06:05:10;16.40;99.90
15819;DHT22;8010;53.986;12.106;2023-09-19T06:07:36;16.40;99.90
15819;DHT22;8010;53.986;12.106;2023-09-19T06:10:06;16.40;99.90
15819;DHT22;8010;53.986;12.106;2023-09-19T06:12:39;16.40;99.90
15819;DHT22;8010;53.986;12.106;2023-09-19T06:15:05;16.40;99.90
15819;DHT22;8010;53.986;12.106;2023-09-19T06:17:34;16.40;99.90
15819;DHT22;8010;53.986;12.106;2023-09-19T06:20:06;16.40;99.90
15819;DHT22;8010;53.986;12.106;2023-09-19T06:22:38;16.40;99.90
15819;DHT22;8010;53.986;12.106;2023-09-19T06:25:04;16.40;99.90
15819;DHT22;8010;53.986;12.106;2023-09-19T06:27:29;16.30;99.90
15819;DHT22;8010;53.986;12.106;2023-09-19T06:29:55;16.20;99.90
15819;DHT22;8010;53.986;12.106;2023-09-19T06:32:27;16.20;99.90
15819;DHT22;8010;53.986;12.106;2023-09-19T06:34:53;16.20;99.90
15819;DHT22;8010;53.986;12.106;2023-09-19T06:37:20;16.20;99.90
15819;DHT22;8010;53.986;12.106;2023-09-19T06:39:46;16.20;99.90
15819;DHT22;8010;53.986;12.106;2023-09-19T06:42:13;16.30;99.90
15819;DHT22;8010;53.986;12.106;2023-09-19T06:44:39;16.40;99.90
15819;DHT22;8010;53.986;12.106;2023-09-19T06:47:04;16.50;99.90
15819;DHT22;8010;53.986;12.106;2023-09-19T06:49:32;16.40;99.90
15819;DHT22;8010;53.986;12.106;2023-09-19T06:51:59;16.50;99.90
15819;DHT22;8010;53.986;12.106;2023-09-19T06:54:24;16.40;99.90
15819;DHT22;8010;53.986;12.106;2023-09-19T06:56:50;16.30;99.90
15819;DHT22;8010;53.986;12.106;2023-09-19T06:59:15;16.30;99.90
15819;DHT22;8010;53.986;12.106;2023-09-19T07:01:41;16.40;99.90
15819;DHT22;8010;53.986;12.106;2023-09-19T07:04:09;16.40;99.90
15819;DHT22;8010;53.986;12.106;2023-09-19T07:06:35;16.40;99.90
15819;DHT22;8010;53.986;12.106;2023-09-19T07:09:01;16.50;99.90
15819;DHT22;8010;53.986;12.106;2023-09-19T07:11:26;16.50;99.90
15819;DHT22;8010;53.986;12.106;2023-09-19T07:13:52;16.50;99.90
15819;DHT22;8010;53.986;12.106;2023-09-19T07:16:17;16.60;99.90
15819;DHT22;8010;53.986;12.106;2023-09-19T07:18:53;16.70;99.90
15819;DHT22;8010;53.986;12.106;2023-09-19T07:21:20;16.70;99.90
15819;DHT22;8010;53.986;12.106;2023-09-19T07:23:46;16.70;99.90
15819;DHT22;8010;53.986;12.106;2023-09-19T07:26:12;16.80;99.90
15819;DHT22;8010;53.986;12.106;2023-09-19T07:28:38;16.90;99.90
15819;DHT22;8010;53.986;12.106;2023-09-19T07:31:04;17.00;99.90
15819;DHT22;8010;53.986;12.106;2023-09-19T07:33:30;17.00;99.90
15819;DHT22;8010;53.986;12.106;2023-09-19T07:35:56;17.00;99.90
15819;DHT22;8010;53.986;12.106;2023-09-19T07:38:22;17.10;99.90
15819;DHT22;8010;53.986;12.106;2023-09-19T07:40:48;17.20;99.90
15819;DHT22;8010;53.986;12.106;2023-09-19T07:43:13;17.20;99.90
15819;DHT22;8010;53.986;12.106;2023-09-19T07:45:39;17.30;99.90
15819;DHT22;8010;53.986;12.106;2023-09-19T07:48:05;17.30;99.90
15819;DHT22;8010;53.986;12.106;2023-09-19T07:50:33;17.30;99.90
15819;DHT22;8010;53.986;12.106;2023-09-19T07:53:02;17.40;99.90
15819;DHT22;8010;53.986;12.106;2023-09-19T07:55:30;17.50;99.90
15819;DHT22;8010;53.986;12.106;2023-09-19T07:57:55;17.60;99.90
15819;DHT22;8010;53.986;12.106;2023-09-19T08:00:21;17.60;99.90
15819;DHT22;8010;53.986;12.106;2023-09-19T08:02:47;17.50;99.90
15819;DHT22;8010;53.986;12.106;2023-09-19T08:05:13;17.50;99.90
15819;DHT22;8010;53.986;12.106;2023-09-19T08:07:44;17.70;99.90
15819;DHT22;8010;53.986;12.106;2023-09-19T08:10:11;17.80;99.90
15819;DHT22;8010;53.986;12.106;2023-09-19T08:12:42;17.80;99.90
15819;DHT22;8010;53.986;12.106;2023-09-19T08:15:20;17.70;99.90
15819;DHT22;8010;53.986;12.106;2023-09-19T08:17:47;17.50;99.90
15819;DHT22;8010;53.986;12.106;2023-09-19T08:20:13;17.50;99.90
15819;DHT22;8010;53.986;12.106;2023-09-19T08:22:52;17.40;99.90
15819;DHT22;8010;53.986;12.106;2023-09-19T08:25:20;17.50;99.90
15819;DHT22;8010;53.986;12.106;2023-09-19T08:27:46;17.50;99.90
15819;DHT22;8010;53.986;12.106;2023-09-19T08:30:14;17.50;99.90
15819;DHT22;8010;53.986;12.106;2023-09-19T08:32:40;17.50;99.90
15819;DHT22;8010;53.986;12.106;2023-09-19T08:35:08;17.60;99.90
15819;DHT22;8010;53.986;12.106;2023-09-19T08:37:34;17.70;99.90
15819;DHT22;8010;53.986;12.106;2023-09-19T08:40:00;17.90;99.90
15819;DHT22;8010;53.986;12.106;2023-09-19T08:42:25;17.90;99.90
15819;DHT22;8010;53.986;12.106;2023-09-19T08:44:52;18.00;99.90
15819;DHT22;8010;53.986;12.106;2023-09-19T08:47:30;18.10;99.90
15819;DHT22;8010;53.986;12.106;2023-09-19T08:50:11;17.90;99.90
15819;DHT22;8010;53.986;12.106;2023-09-19T08:52:42;17.80;99.90
15819;DHT22;8010;53.986;12.106;2023-09-19T08:55:12;17.90;99.90
15819;DHT22;8010;53.986;12.106;2023-09-19T08:57:38;18.10;99.90
15819;DHT22;8010;53.986;12.106;2023-09-19T09:00:10;18.40;99.90
15819;DHT22;8010;53.986;12.106;2023-09-19T09:02:40;18.70;99.90
15819;DHT22;8010;53.986;12.106;2023-09-19T09:05:08;18.60;99.90
15819;DHT22;8010;53.986;12.106;2023-09-19T09:07:35;18.60;99.90
15819;DHT22;8010;53.986;12.106;2023-09-19T09:10:05;18.60;99.90
15819;DHT22;8010;53.986;12.106;2023-09-19T09:12:33;18.70;99.90
15819;DHT22;8010;53.986;12.106;2023-09-19T09:15:02;18.70;99.90
15819;DHT22;8010;53.986;12.106;2023-09-19T09:17:29;18.60;99.90
15819;DHT22;8010;53.986;12.106;2023-09-19T09:19:55;18.50;99.90
15819;DHT22;8010;53.986;12.106;2023-09-19T09:22:21;18.50;99.90
15819;DHT22;8010;53.986;12.106;2023-09-19T09:24:53;18.50;99.90
15819;DHT22;8010;53.986;12.106;2023-09-19T09:27:19;18.60;99.90
15819;DHT22;8010;53.986;12.106;2023-09-19T09:29:50;18.60;99.90
15819;DHT22;8010;53.986;12.106;2023-09-19T09:32:26;18.40;99.90
15819;DHT22;8010;53.986;12.106;2023-09-19T09:34:58;18.30;99.90
15819;DHT22;8010;53.986;12.106;2023-09-19T09:37:25;18.20;99.90
15819;DHT22;8010;53.986;12.106;2023-09-19T09:39:59;18.40;99.90
15819;DHT22;8010;53.986;12.106;2023-09-19T09:42:44;18.30;99.90
15819;DHT22;8010;53.986;12.106;2023-09-19T09:45:21;18.30;99.90
15819;DHT22;8010;53.986;12.106;2023-09-19T09:47:59;18.30;99.90
15819;DHT22;8010;53.986;12.106;2023-09-19T09:50:33;18.30;99.90
15819;DHT22;8010;53.986;12.106;2023-09-19T09:53:26;18.30;99.90
15819;DHT22;8010;53.986;12.106;2023-09-19T09:56:05;18.20;99.90
15819;DHT22;8010;53.986;12.106;2023-09-19T09:58:36;18.10;99.90
15819;DHT22;8010;53.986;12.106;2023-09-19T10:01:04;17.90;99.90
15819;DHT22;8010;53.986;12.106;2023-09-19T10:03:41;17.80;99.90
15819;DHT22;8010;53.986;12.106;2023-09-19T10:06:15;17.80;99.90
15819;DHT22;8010;53.986;12.106;2023-09-19T10:09:07;17.70;99.90
15819;DHT22;8010;53.986;12.106;2023-09-19T10:11:40;17.60;99.90
15819;DHT22;8010;53.986;12.106;2023-09-19T10:14:09;17.60;99.90
15819;DHT22;8010;53.986;12.106;2023-09-19T10:16:45;17.50;99.90
15819;DHT22;8010;53.986;12.106;2023-09-19T10:19:23;17.50;99.90
15819;DHT22;8010;53.986;12.106;2023-09-19T10:21:54;17.50;99.90
15819;DHT22;8010;53.986;12.106;2023-09-19T10:24:22;17.60;99.90
15819;DHT22;8010;53.986;12.106;2023-09-19T10:26:49;17.70;99.90
15819;DHT22;8010;53.986;12.106;2023-09-19T10:29:17;17.70;99.90
15819;DHT22;8010;53.986;12.106;2023-09-19T10:31:44;17.80;99.90
15819;DHT22;8010;53.986;12.106;2023-09-19T10:34:14;18.00;99.90
15819;DHT22;8010;53.986;12.106;2023-09-19T10:36:44;18.10;99.90
15819;DHT22;8010;53.986;12.106;2023-09-19T10:39:13;18.10;99.90
15819;DHT22;8010;53.986;12.106;2023-09-19T10:41:40;18.60;99.90
15819;DHT22;8010;53.986;12.106;2023-09-19T10:44:06;18.20;99.90
15819;DHT22;8010;53.986;12.106;2023-09-19T10:46:32;18.20;99.90
15819;DHT22;8010;53.986;12.106;2023-09-19T10:49:02;18.30;99.90
15819;DHT22;8010;53.986;12.106;2023-09-19T10:51:40;18.50;99.90
15819;DHT22;8010;53.986;12.106;2023-09-19T10:54:10;18.50;99.90
15819;DHT22;8010;53.986;12.106;2023-09-19T10:56:47;18.70;99.90
15819;DHT22;8010;53.986;12.106;2023-09-19T10:59:18;18.70;99.90
15819;DHT22;8010;53.986;12.106;2023-09-19T11:01:52;18.70;99.90
15819;DHT22;8010;53.986;12.106;2023-09-19T11:04:23;18.70;99.90
15819;DHT22;8010;53.986;12.106;2023-09-19T11:07:09;18.80;99.90
15819;DHT22;8010;53.986;12.106;2023-09-19T11:09:52;18.80;99.90
15819;DHT22;8010;53.986;12.106;2023-09-19T11:14:55;18.50;99.90
15819;DHT22;8010;53.986;12.106;2023-09-19T11:30:38;19.40;99.90
15819;DHT22;8010;53.986;12.106;2023-09-19T11:39:01;19.20;99.90
15819;DHT22;8010;53.986;12.106;2023-09-19T11:41:37;19.30;99.90
15819;DHT22;8010;53.986;12.106;2023-09-19T11:46:33;19.70;99.90
15819;DHT22;8010;53.986;12.106;2023-09-19T11:49:09;19.80;99.90
15819;DHT22;8010;53.986;12.106;2023-09-19T11:51:45;19.90;99.90
15819;DHT22;8010;53.986;12.106;2023-09-19T11:54:13;19.80;99.90
15819;DHT22;8010;53.986;12.106;2023-09-19T11:56:49;19.50;99.90
15819;DHT22;8010;53.986;12.106;2023-09-19T11:59:28;19.50;99.90
15819;DHT22;8010;53.986;12.106;2023-09-19T12:01:56;19.60;99.90
15819;DHT22;8010;53.986;12.106;2023-09-19T12:04:38;19.60;99.90
15819;DHT22;8010;53.986;12.106;2023-09-19T12:07:11;19.70;99.90
15819;DHT22;8010;53.986;12.106;2023-09-19T12:09:44;19.70;99.90
15819;DHT22;8010;53.986;12.106;2023-09-19T12:12:20;19.50;99.90
15819;DHT22;8010;53.986;12.106;2023-09-19T12:14:49;19.30;99.90
15819;DHT22;8010;53.986;12.106;2023-09-19T12:17:18;19.20;99.90
15819;DHT22;8010;53.986;12.106;2023-09-19T12:19:52;19.10;99.90
15819;DHT22;8010;53.986;12.106;2023-09-19T12:22:17;19.10;99.90
15819;DHT22;8010;53.986;12.106;2023-09-19T12:24:45;19.30;99.90
15819;DHT22;8010;53.986;12.106;2023-09-19T12:27:12;19.20;99.90
15819;DHT22;8010;53.986;12.106;2023-09-19T12:29:46;19.30;99.90
15819;DHT22;8010;53.986;12.106;2023-09-19T12:32:14;19.50;99.90
15819;DHT22;8010;53.986;12.106;2023-09-19T12:34:42;19.40;99.90
15819;DHT22;8010;53.986;12.106;2023-09-19T12:37:14;19.30;99.90
15819;DHT22;8010;53.986;12.106;2023-09-19T12:39:49;19.30;99.90
15819;DHT22;8010;53.986;12.106;2023-09-19T12:42:18;19.30;99.90
15819;DHT22;8010;53.986;12.106;2023-09-19T12:44:49;19.20;99.90
15819;DHT22;8010;53.986;12.106;2023-09-19T12:47:18;19.30;99.90
15819;DHT22;8010;53.986;12.106;2023-09-19T12:50:11;19.30;99.90
15819;DHT22;8010;53.986;12.106;2023-09-19T12:52:48;19.40;99.90
15819;DHT22;8010;53.986;12.106;2023-09-19T12:55:25;19.50;99.90
15819;DHT22;8010;53.986;12.106;2023-09-19T12:58:13;19.60;99.90
15819;DHT22;8010;53.986;12.106;2023-09-19T13:00:42;19.60;99.90
15819;DHT22;8010;53.986;12.106;2023-09-19T13:03:28;19.60;99.90
15819;DHT22;8010;53.986;12.106;2023-09-19T13:06:02;19.50;99.90
15819;DHT22;8010;53.986;12.106;2023-09-19T13:08:38;19.40;99.90
15819;DHT22;8010;53.986;12.106;2023-09-19T13:11:17;19.40;99.90
15819;DHT22;8010;53.986;12.106;2023-09-19T13:13:45;19.50;99.90
15819;DHT22;8010;53.986;12.106;2023-09-19T13:16:14;19.50;99.90
15819;DHT22;8010;53.986;12.106;2023-09-19T13:18:51;19.50;99.90
15819;DHT22;8010;53.986;12.106;2023-09-19T13:21:33;19.50;99.90
15819;DHT22;8010;53.986;12.106;2023-09-19T13:24:20;19.50;99.90
15819;DHT22;8010;53.986;12.106;2023-09-19T13:26:46;19.40;99.90
15819;DHT22;8010;53.986;12.106;2023-09-19T13:29:12;19.30;99.90
15819;DHT22;8010;53.986;12.106;2023-09-19T13:31:37;19.30;99.90
15819;DHT22;8010;53.986;12.106;2023-09-19T13:34:07;19.30;99.90
15819;DHT22;8010;53.986;12.106;2023-09-19T13:36:32;19.30;99.90
15819;DHT22;8010;53.986;12.106;2023-09-19T13:38:59;19.30;99.90
15819;DHT22;8010;53.986;12.106;2023-09-19T13:41:25;19.30;99.90
15819;DHT22;8010;53.986;12.106;2023-09-19T13:43:51;19.30;99.90
15819;DHT22;8010;53.986;12.106;2023-09-19T13:46:17;19.30;99.90
15819;DHT22;8010;53.986;12.106;2023-09-19T13:48:51;19.40;99.90
15819;DHT22;8010;53.986;12.106;2023-09-19T13:51:17;19.40;99.90
15819;DHT22;8010;53.986;12.106;2023-09-19T13:53:44;19.50;99.90
15819;DHT22;8010;53.986;12.106;2023-09-19T13:56:10;19.50;99.90
15819;DHT22;8010;53.986;12.106;2023-09-19T13:58:36;19.30;99.90
15819;DHT22;8010;53.986;12.106;2023-09-19T14:01:02;19.30;99.90
15819;DHT22;8010;53.986;12.106;2023-09-19T14:03:28;19.40;99.90
15819;DHT22;8010;53.986;12.106;2023-09-19T14:05:54;19.50;99.90
15819;DHT22;8010;53.986;12.106;2023-09-19T14:08:19;19.50;99.90
15819;DHT22;8010;53.986;12.106;2023-09-19T14:10:45;19.50;99.90
15819;DHT22;8010;53.986;12.106;2023-09-19T14:13:11;19.40;99.90
15819;DHT22;8010;53.986;12.106;2023-09-19T14:15:38;19.30;99.90
15819;DHT22;8010;53.986;12.106;2023-09-19T14:18:04;19.30;99.90
15819;DHT22;8010;53.986;12.106;2023-09-19T14:20:30;19.30;99.90
15819;DHT22;8010;53.986;12.106;2023-09-19T14:22:57;19.40;99.90
15819;DHT22;8010;53.986;12.106;2023-09-19T14:25:24;19.40;99.90
15819;DHT22;8010;53.986;12.106;2023-09-19T14:27:50;19.50;99.90
15819;DHT22;8010;53.986;12.106;2023-09-19T14:30:16;19.50;99.90
15819;DHT22;8010;53.986;12.106;2023-09-19T14:32:41;19.60;99.90
15819;DHT22;8010;53.986;12.106;2023-09-19T14:35:07;19.70;99.90
15819;DHT22;8010;53.986;12.106;2023-09-19T14:37:35;19.60;99.90
15819;DHT22;8010;53.986;12.106;2023-09-19T14:40:00;19.70;99.90
15819;DHT22;8010;53.986;12.106;2023-09-19T14:42:28;19.70;99.90
15819;DHT22;8010;53.986;12.106;2023-09-19T14:44:54;19.70;99.90
15819;DHT22;8010;53.986;12.106;2023-09-19T14:47:19;19.90;99.90
15819;DHT22;8010;53.986;12.106;2023-09-19T14:49:45;19.90;99.90
15819;DHT22;8010;53.986;12.106;2023-09-19T14:52:11;19.90;99.90
15819;DHT22;8010;53.986;12.106;2023-09-19T14:54:40;20.00;99.90
15819;DHT22;8010;53.986;12.106;2023-09-19T14:57:06;20.00;99.90
15819;DHT22;8010;53.986;12.106;2023-09-19T14:59:34;19.90;99.90
15819;DHT22;8010;53.986;12.106;2023-09-19T15:02:04;19.90;99.90
15819;DHT22;8010;53.986;12.106;2023-09-19T15:04:29;19.70;99.90
15819;DHT22;8010;53.986;12.106;2023-09-19T15:06:55;19.80;99.90
15819;DHT22;8010;53.986;12.106;2023-09-19T15:09:22;19.90;99.90
15819;DHT22;8010;53.986;12.106;2023-09-19T15:11:49;20.10;99.90
15819;DHT22;8010;53.986;12.106;2023-09-19T15:14:15;20.20;99.90
15819;DHT22;8010;53.986;12.106;2023-09-19T15:16:40;20.30;99.90
15819;DHT22;8010;53.986;12.106;2023-09-19T15:19:09;20.20;99.90
15819;DHT22;8010;53.986;12.106;2023-09-19T15:21:35;20.20;99.90
15819;DHT22;8010;53.986;12.106;2023-09-19T15:24:02;20.20;99.90
15819;DHT22;8010;53.986;12.106;2023-09-19T15:26:29;20.20;99.90
15819;DHT22;8010;53.986;12.106;2023-09-19T15:28:55;20.10;99.90
15819;DHT22;8010;53.986;12.106;2023-09-19T15:31:21;20.00;99.90
15819;DHT22;8010;53.986;12.106;2023-09-19T15:33:47;20.00;99.90
15819;DHT22;8010;53.986;12.106;2023-09-19T15:36:14;19.80;99.90
15819;DHT22;8010;53.986;12.106;2023-09-19T15:38:55;19.60;99.90
15819;DHT22;8010;53.986;12.106;2023-09-19T15:41:22;19.60;99.90
15819;DHT22;8010;53.986;12.106;2023-09-19T15:43:48;19.70;99.90
15819;DHT22;8010;53.986;12.106;2023-09-19T15:46:14;19.50;99.90
15819;DHT22;8010;53.986;12.106;2023-09-19T15:48:40;19.50;99.90
15819;DHT22;8010;53.986;12.106;2023-09-19T15:51:06;19.50;99.90
15819;DHT22;8010;53.986;12.106;2023-09-19T15:53:48;19.40;99.90
15819;DHT22;8010;53.986;12.106;2023-09-19T15:56:15;19.30;99.90
15819;DHT22;8010;53.986;12.106;2023-09-19T15:58:47;19.30;99.90
15819;DHT22;8010;53.986;12.106;2023-09-19T16:01:13;19.20;99.90
15819;DHT22;8010;53.986;12.106;2023-09-19T16:03:43;19.20;99.90
15819;DHT22;8010;53.986;12.106;2023-09-19T16:06:10;19.20;99.90